sensor_id;sensor_type;location;lat;lon;timestamp;P1;durP1;ratioP1;P2;durP2;ratioP2
19219;SDS011;9744;49.364;7.484;2024-01-30T00:00:16;21.20;;;11.93;;
19219;SDS011;9744;49.364;7.484;2024-01-30T00:07:29;20.33;;;11.60;;
19219;SDS011;9744;49.364;7.484;2024-01-30T00:10:07;26.45;;;12.68;;
19219;SDS011;9744;49.364;7.484;2024-01-30T00:12:51;23.63;;;12.95;;
19219;SDS011;9744;49.364;7.484;2024-01-30T00:23:03;22.23;;;12.32;;
19219;SDS011;9744;49.364;7.484;2024-01-30T00:26:20;21.10;;;12.20;;
19219;SDS011;9744;49.364;7.484;2024-01-30T00:30:11;18.80;;;11.30;;
19219;SDS011;9744;49.364;7.484;2024-01-30T00:32:54;26.08;;;12.45;;
19219;SDS011;9744;49.364;7.484;2024-01-30T00:38:35;19.88;;;11.18;;
19219;SDS011;9744;49.364;7.484;2024-01-30T00:41:18;20.00;;;11.10;;
19219;SDS011;9744;49.364;7.484;2024-01-30T00:44:09;23.40;;;10.88;;
19219;SDS011;9744;49.364;7.484;2024-01-30T00:46:59;22.63;;;11.07;;
19219;SDS011;9744;49.364;7.484;2024-01-30T00:54:02;19.13;;;10.82;;
19219;SDS011;9744;49.364;7.484;2024-01-30T00:56:47;19.90;;;10.95;;
19219;SDS011;9744;49.364;7.484;2024-01-30T01:03:17;21.15;;;11.00;;
19219;SDS011;9744;49.364;7.484;2024-01-30T01:06:05;24.75;;;10.90;;
19219;SDS011;9744;49.364;7.484;2024-01-30T01:09:11;21.52;;;11.55;;
19219;SDS011;9744;49.364;7.484;2024-01-30T01:11:52;20.25;;;11.00;;
19219;SDS011;9744;49.364;7.484;2024-01-30T01:14:25;22.20;;;11.13;;
19219;SDS011;9744;49.364;7.484;2024-01-30T01:17:13;19.85;;;10.45;;
19219;SDS011;9744;49.364;7.484;2024-01-30T01:19:50;18.85;;;10.65;;
19219;SDS011;9744;49.364;7.484;2024-01-30T01:22:37;17.95;;;9.95;;
19219;SDS011;9744;49.364;7.484;2024-01-30T01:25:25;14.40;;;9.20;;
19219;SDS011;9744;49.364;7.484;2024-01-30T01:28:07;17.15;;;9.40;;
19219;SDS011;9744;49.364;7.484;2024-01-30T01:35:00;15.82;;;9.02;;
19219;SDS011;9744;49.364;7.484;2024-01-30T01:41:59;17.98;;;9.90;;
19219;SDS011;9744;49.364;7.484;2024-01-30T01:44:42;20.70;;;10.23;;
19219;SDS011;9744;49.364;7.484;2024-01-30T01:47:42;19.73;;;9.50;;
19219;SDS011;9744;49.364;7.484;2024-01-30T01:50:42;18.83;;;10.38;;
19219;SDS011;9744;49.364;7.484;2024-01-30T01:53:15;21.35;;;10.57;;
19219;SDS011;9744;49.364;7.484;2024-01-30T01:56:14;16.00;;;10.10;;
19219;SDS011;9744;49.364;7.484;2024-01-30T02:06:26;20.35;;;9.77;;
19219;SDS011;9744;49.364;7.484;2024-01-30T02:09:23;16.92;;;9.48;;
19219;SDS011;9744;49.364;7.484;2024-01-30T02:12:13;16.35;;;9.43;;
19219;SDS011;9744;49.364;7.484;2024-01-30T02:17:48;16.75;;;9.52;;
19219;SDS011;9744;49.364;7.484;2024-01-30T02:28:12;14.52;;;8.48;;
19219;SDS011;9744;49.364;7.484;2024-01-30T02:31:25;15.93;;;9.20;;
19219;SDS011;9744;49.364;7.484;2024-01-30T02:34:18;18.25;;;9.90;;
19219;SDS011;9744;49.364;7.484;2024-01-30T02:38:02;18.67;;;9.55;;
19219;SDS011;9744;49.364;7.484;2024-01-30T02:40:42;15.65;;;9.18;;
19219;SDS011;9744;49.364;7.484;2024-01-30T02:43:53;17.52;;;8.98;;
19219;SDS011;9744;49.364;7.484;2024-01-30T02:46:34;15.38;;;9.20;;
19219;SDS011;9744;49.364;7.484;2024-01-30T02:49:20;14.60;;;9.65;;
19219;SDS011;9744;49.364;7.484;2024-01-30T02:52:07;20.92;;;9.77;;
19219;SDS011;9744;49.364;7.484;2024-01-30T02:55:26;19.50;;;9.43;;
19219;SDS011;9744;49.364;7.484;2024-01-30T03:02:22;16.88;;;9.40;;
19219;SDS011;9744;49.364;7.484;2024-01-30T03:05:06;16.55;;;8.75;;
19219;SDS011;9744;49.364;7.484;2024-01-30T03:07:41;18.67;;;9.18;;
19219;SDS011;9744;49.364;7.484;2024-01-30T03:10:35;20.30;;;8.85;;
19219;SDS011;9744;49.364;7.484;2024-01-30T03:13:36;15.10;;;8.57;;
19219;SDS011;9744;49.364;7.484;2024-01-30T03:16:39;14.27;;;8.27;;
19219;SDS011;9744;49.364;7.484;2024-01-30T03:23:34;18.17;;;8.05;;
19219;SDS011;9744;49.364;7.484;2024-01-30T03:26:27;17.33;;;8.55;;
19219;SDS011;9744;49.364;7.484;2024-01-30T03:29:17;13.85;;;8.82;;
19219;SDS011;9744;49.364;7.484;2024-01-30T03:31:50;17.27;;;8.77;;
19219;SDS011;9744;49.364;7.484;2024-01-30T03:34:22;16.17;;;7.85;;
19219;SDS011;9744;49.364;7.484;2024-01-30T03:36:58;19.08;;;9.48;;
19219;SDS011;9744;49.364;7.484;2024-01-30T03:39:33;16.83;;;8.15;;
19219;SDS011;9744;49.364;7.484;2024-01-30T03:42:06;16.38;;;8.30;;
19219;SDS011;9744;49.364;7.484;2024-01-30T03:48:34;14.55;;;8.27;;
19219;SDS011;9744;49.364;7.484;2024-01-30T03:51:06;15.40;;;8.10;;
19219;SDS011;9744;49.364;7.484;2024-01-30T03:53:43;14.38;;;8.30;;
19219;SDS011;9744;49.364;7.484;2024-01-30T03:56:13;15.75;;;8.18;;
19219;SDS011;9744;49.364;7.484;2024-01-30T03:58:45;13.07;;;7.95;;
19219;SDS011;9744;49.364;7.484;2024-01-30T04:01:16;18.77;;;8.55;;
19219;SDS011;9744;49.364;7.484;2024-01-30T04:03:46;16.38;;;7.63;;
19219;SDS011;9744;49.364;7.484;2024-01-30T04:10:19;15.32;;;8.18;;
19219;SDS011;9744;49.364;7.484;2024-01-30T04:12:50;12.98;;;7.25;;
19219;SDS011;9744;49.364;7.484;2024-01-30T04:15:22;12.88;;;7.65;;
19219;SDS011;9744;49.364;7.484;2024-01-30T04:18:00;12.35;;;7.88;;
19219;SDS011;9744;49.364;7.484;2024-01-30T04:20:29;14.55;;;7.57;;
19219;SDS011;9744;49.364;7.484;2024-01-30T04:23:09;13.43;;;8.27;;
19219;SDS011;9744;49.364;7.484;2024-01-30T04:25:43;12.25;;;7.80;;
19219;SDS011;9744;49.364;7.484;2024-01-30T04:28:16;11.98;;;7.18;;
19219;SDS011;9744;49.364;7.484;2024-01-30T04:30:45;12.75;;;7.75;;
19219;SDS011;9744;49.364;7.484;2024-01-30T04:33:16;11.50;;;7.10;;
19219;SDS011;9744;49.364;7.484;2024-01-30T04:35:49;13.55;;;7.15;;
19219;SDS011;9744;49.364;7.484;2024-01-30T04:38:20;12.57;;;7.45;;
19219;SDS011;9744;49.364;7.484;2024-01-30T04:40:56;13.02;;;7.30;;
19219;SDS011;9744;49.364;7.484;2024-01-30T04:50:23;14.38;;;7.30;;
19219;SDS011;9744;49.364;7.484;2024-01-30T04:52:54;12.07;;;7.10;;
19219;SDS011;9744;49.364;7.484;2024-01-30T04:55:22;13.30;;;7.63;;
19219;SDS011;9744;49.364;7.484;2024-01-30T04:57:51;13.18;;;7.35;;
19219;SDS011;9744;49.364;7.484;2024-01-30T05:00:23;14.23;;;7.40;;
19219;SDS011;9744;49.364;7.484;2024-01-30T05:02:56;17.33;;;6.88;;
19219;SDS011;9744;49.364;7.484;2024-01-30T05:05:26;16.42;;;7.60;;
19219;SDS011;9744;49.364;7.484;2024-01-30T05:07:56;11.27;;;6.90;;
19219;SDS011;9744;49.364;7.484;2024-01-30T05:10:25;14.50;;;7.85;;
19219;SDS011;9744;49.364;7.484;2024-01-30T05:12:57;16.40;;;7.20;;
19219;SDS011;9744;49.364;7.484;2024-01-30T05:15:27;17.48;;;7.68;;
19219;SDS011;9744;49.364;7.484;2024-01-30T05:18:01;12.85;;;7.72;;
19219;SDS011;9744;49.364;7.484;2024-01-30T05:20:44;16.10;;;7.40;;
19219;SDS011;9744;49.364;7.484;2024-01-30T05:27:15;13.82;;;7.40;;
19219;SDS011;9744;49.364;7.484;2024-01-30T05:29:46;14.20;;;6.97;;
19219;SDS011;9744;49.364;7.484;2024-01-30T05:32:25;13.75;;;7.25;;
19219;SDS011;9744;49.364;7.484;2024-01-30T05:34:54;37.15;;;19.05;;
19219;SDS011;9744;49.364;7.484;2024-01-30T05:37:22;12.65;;;7.88;;
19219;SDS011;9744;49.364;7.484;2024-01-30T05:39:49;14.65;;;8.05;;
19219;SDS011;9744;49.364;7.484;2024-01-30T05:42:17;17.23;;;8.65;;
19219;SDS011;9744;49.364;7.484;2024-01-30T05:44:45;16.23;;;7.88;;
19219;SDS011;9744;49.364;7.484;2024-01-30T05:47:12;11.27;;;7.10;;
19219;SDS011;9744;49.364;7.484;2024-01-30T05:49:41;17.40;;;7.32;;
19219;SDS011;9744;49.364;7.484;2024-01-30T05:52:09;14.52;;;7.13;;
19219;SDS011;9744;49.364;7.484;2024-01-30T05:54:37;13.88;;;6.90;;
19219;SDS011;9744;49.364;7.484;2024-01-30T05:57:07;16.42;;;7.82;;
19219;SDS011;9744;49.364;7.484;2024-01-30T05:59:48;13.20;;;8.15;;
19219;SDS011;9744;49.364;7.484;2024-01-30T06:02:17;13.43;;;7.97;;
19219;SDS011;9744;49.364;7.484;2024-01-30T06:04:45;13.02;;;7.68;;
19219;SDS011;9744;49.364;7.484;2024-01-30T06:07:14;13.95;;;8.07;;
19219;SDS011;9744;49.364;7.484;2024-01-30T06:13:45;12.50;;;6.65;;
19219;SDS011;9744;49.364;7.484;2024-01-30T06:16:13;12.25;;;6.90;;
19219;SDS011;9744;49.364;7.484;2024-01-30T06:18:42;13.00;;;7.20;;
19219;SDS011;9744;49.364;7.484;2024-01-30T06:21:09;11.10;;;7.20;;
19219;SDS011;9744;49.364;7.484;2024-01-30T06:23:41;12.63;;;6.85;;
19219;SDS011;9744;49.364;7.484;2024-01-30T06:29:35;14.32;;;7.10;;
19219;SDS011;9744;49.364;7.484;2024-01-30T06:32:03;13.35;;;7.13;;
19219;SDS011;9744;49.364;7.484;2024-01-30T06:34:33;13.82;;;7.57;;
19219;SDS011;9744;49.364;7.484;2024-01-30T06:37:01;11.70;;;7.43;;
19219;SDS011;9744;49.364;7.484;2024-01-30T06:39:33;13.73;;;7.60;;
19219;SDS011;9744;49.364;7.484;2024-01-30T06:42:00;15.77;;;7.65;;
19219;SDS011;9744;49.364;7.484;2024-01-30T06:44:28;13.07;;;7.15;;
19219;SDS011;9744;49.364;7.484;2024-01-30T06:46:55;15.43;;;7.57;;
19219;SDS011;9744;49.364;7.484;2024-01-30T06:52:15;14.85;;;7.93;;
19219;SDS011;9744;49.364;7.484;2024-01-30T06:54:43;15.20;;;7.28;;
19219;SDS011;9744;49.364;7.484;2024-01-30T06:57:11;12.10;;;7.10;;
19219;SDS011;9744;49.364;7.484;2024-01-30T06:59:39;17.33;;;6.93;;
19219;SDS011;9744;49.364;7.484;2024-01-30T07:02:10;15.00;;;8.05;;
19219;SDS011;9744;49.364;7.484;2024-01-30T07:04:39;15.77;;;7.68;;
19219;SDS011;9744;49.364;7.484;2024-01-30T07:07:07;12.80;;;7.78;;
19219;SDS011;9744;49.364;7.484;2024-01-30T07:09:38;11.80;;;7.70;;
19219;SDS011;9744;49.364;7.484;2024-01-30T07:12:09;13.38;;;8.20;;
19219;SDS011;9744;49.364;7.484;2024-01-30T07:14:37;15.90;;;8.15;;
19219;SDS011;9744;49.364;7.484;2024-01-30T07:17:05;14.30;;;7.55;;
19219;SDS011;9744;49.364;7.484;2024-01-30T07:19:32;13.65;;;7.80;;
19219;SDS011;9744;49.364;7.484;2024-01-30T07:22:00;16.17;;;8.07;;
19219;SDS011;9744;49.364;7.484;2024-01-30T07:24:31;15.75;;;7.70;;
19219;SDS011;9744;49.364;7.484;2024-01-30T07:27:00;16.30;;;8.35;;
19219;SDS011;9744;49.364;7.484;2024-01-30T07:29:29;12.05;;;7.00;;
19219;SDS011;9744;49.364;7.484;2024-01-30T07:31:57;15.63;;;7.75;;
19219;SDS011;9744;49.364;7.484;2024-01-30T07:34:26;14.38;;;7.72;;
19219;SDS011;9744;49.364;7.484;2024-01-30T07:36:53;15.93;;;8.10;;
19219;SDS011;9744;49.364;7.484;2024-01-30T07:42:58;15.80;;;8.05;;
19219;SDS011;9744;49.364;7.484;2024-01-30T07:45:29;15.35;;;7.38;;
19219;SDS011;9744;49.364;7.484;2024-01-30T07:47:58;14.68;;;7.43;;
19219;SDS011;9744;49.364;7.484;2024-01-30T07:50:26;15.55;;;7.22;;
19219;SDS011;9744;49.364;7.484;2024-01-30T07:52:55;16.50;;;8.30;;
19219;SDS011;9744;49.364;7.484;2024-01-30T07:55:24;18.85;;;8.15;;
19219;SDS011;9744;49.364;7.484;2024-01-30T07:57:56;11.30;;;7.72;;
19219;SDS011;9744;49.364;7.484;2024-01-30T08:00:24;13.27;;;7.70;;
19219;SDS011;9744;49.364;7.484;2024-01-30T08:02:53;13.70;;;7.82;;
19219;SDS011;9744;49.364;7.484;2024-01-30T08:05:23;15.70;;;7.57;;
19219;SDS011;9744;49.364;7.484;2024-01-30T08:07:55;17.60;;;7.50;;
19219;SDS011;9744;49.364;7.484;2024-01-30T08:10:32;15.38;;;7.90;;
19219;SDS011;9744;49.364;7.484;2024-01-30T08:13:34;16.98;;;7.82;;
19219;SDS011;9744;49.364;7.484;2024-01-30T08:16:04;12.82;;;7.70;;
19219;SDS011;9744;49.364;7.484;2024-01-30T08:18:35;19.38;;;7.85;;
19219;SDS011;9744;49.364;7.484;2024-01-30T08:21:08;18.10;;;7.82;;
19219;SDS011;9744;49.364;7.484;2024-01-30T08:23:37;18.40;;;7.78;;
19219;SDS011;9744;49.364;7.484;2024-01-30T08:26:09;18.02;;;8.93;;
19219;SDS011;9744;49.364;7.484;2024-01-30T08:28:37;15.63;;;8.52;;
19219;SDS011;9744;49.364;7.484;2024-01-30T08:31:15;15.90;;;8.35;;
19219;SDS011;9744;49.364;7.484;2024-01-30T08:33:59;11.82;;;7.75;;
19219;SDS011;9744;49.364;7.484;2024-01-30T08:36:27;11.98;;;6.85;;
19219;SDS011;9744;49.364;7.484;2024-01-30T08:38:56;23.80;;;7.85;;
19219;SDS011;9744;49.364;7.484;2024-01-30T08:41:25;14.27;;;8.05;;
19219;SDS011;9744;49.364;7.484;2024-01-30T08:43:53;13.70;;;7.68;;
19219;SDS011;9744;49.364;7.484;2024-01-30T08:46:30;12.20;;;7.18;;
19219;SDS011;9744;49.364;7.484;2024-01-30T08:51:48;12.88;;;7.82;;
19219;SDS011;9744;49.364;7.484;2024-01-30T08:54:17;16.23;;;8.43;;
19219;SDS011;9744;49.364;7.484;2024-01-30T08:56:44;16.67;;;8.48;;
19219;SDS011;9744;49.364;7.484;2024-01-30T08:59:11;15.45;;;8.02;;
19219;SDS011;9744;49.364;7.484;2024-01-30T09:01:39;13.23;;;7.50;;
19219;SDS011;9744;49.364;7.484;2024-01-30T09:04:06;14.50;;;7.82;;
19219;SDS011;9744;49.364;7.484;2024-01-30T09:06:35;13.35;;;7.38;;
19219;SDS011;9744;49.364;7.484;2024-01-30T09:09:06;19.67;;;7.53;;
19219;SDS011;9744;49.364;7.484;2024-01-30T09:11:43;17.65;;;8.10;;
19219;SDS011;9744;49.364;7.484;2024-01-30T09:14:11;16.58;;;8.13;;
19219;SDS011;9744;49.364;7.484;2024-01-30T09:16:38;14.75;;;8.00;;
19219;SDS011;9744;49.364;7.484;2024-01-30T09:19:05;17.15;;;8.68;;
19219;SDS011;9744;49.364;7.484;2024-01-30T09:21:32;21.42;;;9.70;;
19219;SDS011;9744;49.364;7.484;2024-01-30T09:24:03;14.55;;;8.57;;
19219;SDS011;9744;49.364;7.484;2024-01-30T09:26:30;14.23;;;7.13;;
19219;SDS011;9744;49.364;7.484;2024-01-30T09:28:59;13.93;;;7.38;;
19219;SDS011;9744;49.364;7.484;2024-01-30T09:31:33;14.73;;;7.68;;
19219;SDS011;9744;49.364;7.484;2024-01-30T09:34:20;15.38;;;7.82;;
19219;SDS011;9744;49.364;7.484;2024-01-30T09:36:47;18.15;;;8.25;;
19219;SDS011;9744;49.364;7.484;2024-01-30T09:39:15;14.68;;;7.55;;
19219;SDS011;9744;49.364;7.484;2024-01-30T09:41:49;13.90;;;7.43;;
19219;SDS011;9744;49.364;7.484;2024-01-30T09:44:27;15.73;;;7.38;;
19219;SDS011;9744;49.364;7.484;2024-01-30T09:47:02;15.80;;;8.75;;
19219;SDS011;9744;49.364;7.484;2024-01-30T09:49:31;15.90;;;7.78;;
19219;SDS011;9744;49.364;7.484;2024-01-30T09:52:00;14.13;;;7.55;;
19219;SDS011;9744;49.364;7.484;2024-01-30T09:54:30;15.25;;;7.70;;
19219;SDS011;9744;49.364;7.484;2024-01-30T09:56:58;14.50;;;7.80;;
19219;SDS011;9744;49.364;7.484;2024-01-30T09:59:25;14.82;;;8.05;;
19219;SDS011;9744;49.364;7.484;2024-01-30T10:01:54;12.38;;;7.60;;
19219;SDS011;9744;49.364;7.484;2024-01-30T10:04:24;18.33;;;8.32;;
19219;SDS011;9744;49.364;7.484;2024-01-30T10:06:51;15.00;;;8.88;;
19219;SDS011;9744;49.364;7.484;2024-01-30T10:09:21;13.02;;;7.90;;
19219;SDS011;9744;49.364;7.484;2024-01-30T10:11:54;11.85;;;7.45;;
19219;SDS011;9744;49.364;7.484;2024-01-30T10:14:21;13.20;;;7.85;;
19219;SDS011;9744;49.364;7.484;2024-01-30T10:16:48;17.38;;;8.60;;
19219;SDS011;9744;49.364;7.484;2024-01-30T10:19:17;13.07;;;7.82;;
19219;SDS011;9744;49.364;7.484;2024-01-30T10:21:45;14.35;;;8.30;;
19219;SDS011;9744;49.364;7.484;2024-01-30T10:24:13;17.40;;;8.18;;
19219;SDS011;9744;49.364;7.484;2024-01-30T10:26:43;11.75;;;7.80;;
19219;SDS011;9744;49.364;7.484;2024-01-30T10:29:13;19.92;;;8.57;;
19219;SDS011;9744;49.364;7.484;2024-01-30T10:31:42;15.82;;;8.00;;
19219;SDS011;9744;49.364;7.484;2024-01-30T10:34:10;15.93;;;7.90;;
19219;SDS011;9744;49.364;7.484;2024-01-30T10:36:39;17.95;;;8.10;;
19219;SDS011;9744;49.364;7.484;2024-01-30T10:39:08;16.27;;;9.15;;
19219;SDS011;9744;49.364;7.484;2024-01-30T10:41:43;16.23;;;7.47;;
19219;SDS011;9744;49.364;7.484;2024-01-30T10:44:18;14.52;;;8.48;;
19219;SDS011;9744;49.364;7.484;2024-01-30T10:46:51;15.30;;;7.80;;
19219;SDS011;9744;49.364;7.484;2024-01-30T10:49:24;16.98;;;8.07;;
19219;SDS011;9744;49.364;7.484;2024-01-30T10:51:52;13.88;;;7.57;;
19219;SDS011;9744;49.364;7.484;2024-01-30T10:54:22;12.80;;;6.82;;
19219;SDS011;9744;49.364;7.484;2024-01-30T10:56:55;13.93;;;7.40;;
19219;SDS011;9744;49.364;7.484;2024-01-30T10:59:26;15.20;;;7.95;;
19219;SDS011;9744;49.364;7.484;2024-01-30T11:01:56;12.70;;;7.72;;
19219;SDS011;9744;49.364;7.484;2024-01-30T11:04:25;18.60;;;7.88;;
19219;SDS011;9744;49.364;7.484;2024-01-30T11:06:52;14.63;;;7.20;;
19219;SDS011;9744;49.364;7.484;2024-01-30T11:09:21;12.88;;;6.90;;
19219;SDS011;9744;49.364;7.484;2024-01-30T11:11:49;18.63;;;7.85;;
19219;SDS011;9744;49.364;7.484;2024-01-30T11:14:17;13.85;;;8.48;;
19219;SDS011;9744;49.364;7.484;2024-01-30T11:16:52;11.60;;;7.68;;
19219;SDS011;9744;49.364;7.484;2024-01-30T11:19:22;18.60;;;8.38;;
19219;SDS011;9744;49.364;7.484;2024-01-30T11:21:51;19.92;;;8.88;;
19219;SDS011;9744;49.364;7.484;2024-01-30T11:24:20;14.82;;;7.95;;
19219;SDS011;9744;49.364;7.484;2024-01-30T11:26:48;15.73;;;8.23;;
19219;SDS011;9744;49.364;7.484;2024-01-30T11:29:16;16.80;;;8.35;;
19219;SDS011;9744;49.364;7.484;2024-01-30T11:31:53;18.10;;;8.88;;
19219;SDS011;9744;49.364;7.484;2024-01-30T11:34:21;15.70;;;7.80;;
19219;SDS011;9744;49.364;7.484;2024-01-30T11:36:51;14.65;;;7.95;;
19219;SDS011;9744;49.364;7.484;2024-01-30T11:39:24;19.90;;;10.30;;
19219;SDS011;9744;49.364;7.484;2024-01-30T11:41:54;14.98;;;8.50;;
19219;SDS011;9744;49.364;7.484;2024-01-30T11:44:25;18.25;;;8.32;;
19219;SDS011;9744;49.364;7.484;2024-01-30T11:46:55;15.45;;;7.55;;
19219;SDS011;9744;49.364;7.484;2024-01-30T11:49:23;15.57;;;8.25;;
19219;SDS011;9744;49.364;7.484;2024-01-30T11:51:50;16.70;;;8.77;;
19219;SDS011;9744;49.364;7.484;2024-01-30T11:54:19;15.82;;;7.93;;
19219;SDS011;9744;49.364;7.484;2024-01-30T11:56:46;13.05;;;8.68;;
19219;SDS011;9744;49.364;7.484;2024-01-30T11:59:13;12.52;;;8.15;;
19219;SDS011;9744;49.364;7.484;2024-01-30T12:01:43;13.35;;;8.50;;
19219;SDS011;9744;49.364;7.484;2024-01-30T12:04:16;16.20;;;8.75;;
19219;SDS011;9744;49.364;7.484;2024-01-30T12:06:43;20.85;;;8.18;;
19219;SDS011;9744;49.364;7.484;2024-01-30T12:09:10;16.33;;;8.57;;
19219;SDS011;9744;49.364;7.484;2024-01-30T12:11:45;13.57;;;8.10;;
19219;SDS011;9744;49.364;7.484;2024-01-30T12:14:15;23.98;;;8.73;;
19219;SDS011;9744;49.364;7.484;2024-01-30T12:16:47;14.77;;;7.65;;
19219;SDS011;9744;49.364;7.484;2024-01-30T12:19:22;15.07;;;7.80;;
19219;SDS011;9744;49.364;7.484;2024-01-30T12:21:53;17.27;;;9.20;;
19219;SDS011;9744;49.364;7.484;2024-01-30T12:24:22;15.25;;;8.32;;
19219;SDS011;9744;49.364;7.484;2024-01-30T12:26:50;16.90;;;9.18;;
19219;SDS011;9744;49.364;7.484;2024-01-30T12:29:19;18.88;;;8.55;;
19219;SDS011;9744;49.364;7.484;2024-01-30T12:31:52;14.02;;;8.55;;
19219;SDS011;9744;49.364;7.484;2024-01-30T12:34:20;13.25;;;7.75;;
19219;SDS011;9744;49.364;7.484;2024-01-30T12:36:49;15.65;;;8.40;;
19219;SDS011;9744;49.364;7.484;2024-01-30T12:39:16;15.82;;;8.20;;
19219;SDS011;9744;49.364;7.484;2024-01-30T12:41:43;18.60;;;8.00;;
19219;SDS011;9744;49.364;7.484;2024-01-30T12:44:11;13.00;;;7.38;;
19219;SDS011;9744;49.364;7.484;2024-01-30T12:46:40;13.90;;;7.55;;
19219;SDS011;9744;49.364;7.484;2024-01-30T12:49:07;15.00;;;7.78;;
19219;SDS011;9744;49.364;7.484;2024-01-30T12:51:34;10.20;;;6.97;;
19219;SDS011;9744;49.364;7.484;2024-01-30T12:54:07;17.30;;;8.82;;
19219;SDS011;9744;49.364;7.484;2024-01-30T12:56:34;20.08;;;8.52;;
19219;SDS011;9744;49.364;7.484;2024-01-30T12:59:01;17.98;;;8.52;;
19219;SDS011;9744;49.364;7.484;2024-01-30T13:01:28;13.77;;;8.43;;
19219;SDS011;9744;49.364;7.484;2024-01-30T13:03:57;18.67;;;8.25;;
19219;SDS011;9744;49.364;7.484;2024-01-30T13:06:24;19.38;;;9.23;;
19219;SDS011;9744;49.364;7.484;2024-01-30T13:08:52;20.73;;;8.82;;
19219;SDS011;9744;49.364;7.484;2024-01-30T13:11:21;19.65;;;10.50;;
19219;SDS011;9744;49.364;7.484;2024-01-30T13:13:50;16.88;;;9.07;;
19219;SDS011;9744;49.364;7.484;2024-01-30T13:16:17;15.07;;;8.25;;
19219;SDS011;9744;49.364;7.484;2024-01-30T13:18:45;17.30;;;8.30;;
19219;SDS011;9744;49.364;7.484;2024-01-30T13:21:12;14.35;;;8.20;;
19219;SDS011;9744;49.364;7.484;2024-01-30T13:23:40;19.45;;;8.80;;
19219;SDS011;9744;49.364;7.484;2024-01-30T13:26:07;15.63;;;8.65;;
19219;SDS011;9744;49.364;7.484;2024-01-30T13:28:36;14.90;;;8.80;;
19219;SDS011;9744;49.364;7.484;2024-01-30T13:31:06;14.07;;;7.95;;
19219;SDS011;9744;49.364;7.484;2024-01-30T13:33:33;14.57;;;8.80;;
19219;SDS011;9744;49.364;7.484;2024-01-30T13:36:01;14.82;;;8.02;;
19219;SDS011;9744;49.364;7.484;2024-01-30T13:41:18;18.92;;;8.68;;
19219;SDS011;9744;49.364;7.484;2024-01-30T13:43:50;16.42;;;8.60;;
19219;SDS011;9744;49.364;7.484;2024-01-30T13:46:17;15.15;;;8.40;;
19219;SDS011;9744;49.364;7.484;2024-01-30T13:48:46;13.50;;;8.48;;
19219;SDS011;9744;49.364;7.484;2024-01-30T13:51:13;19.90;;;8.38;;
19219;SDS011;9744;49.364;7.484;2024-01-30T13:53:42;20.77;;;9.27;;
19219;SDS011;9744;49.364;7.484;2024-01-30T13:56:09;19.30;;;8.88;;
19219;SDS011;9744;49.364;7.484;2024-01-30T13:58:37;16.80;;;9.95;;
19219;SDS011;9744;49.364;7.484;2024-01-30T14:01:06;19.15;;;9.48;;
19219;SDS011;9744;49.364;7.484;2024-01-30T14:03:35;17.38;;;9.82;;
19219;SDS011;9744;49.364;7.484;2024-01-30T14:06:02;14.57;;;9.07;;
19219;SDS011;9744;49.364;7.484;2024-01-30T14:08:30;16.13;;;8.68;;
19219;SDS011;9744;49.364;7.484;2024-01-30T14:10:58;15.85;;;9.45;;
19219;SDS011;9744;49.364;7.484;2024-01-30T14:13:27;20.70;;;10.30;;
19219;SDS011;9744;49.364;7.484;2024-01-30T14:15:55;19.52;;;9.13;;
19219;SDS011;9744;49.364;7.484;2024-01-30T14:18:25;18.73;;;9.10;;
19219;SDS011;9744;49.364;7.484;2024-01-30T14:20:52;16.70;;;9.80;;
19219;SDS011;9744;49.364;7.484;2024-01-30T14:23:20;17.10;;;9.57;;
19219;SDS011;9744;49.364;7.484;2024-01-30T14:25:47;16.33;;;9.25;;
19219;SDS011;9744;49.364;7.484;2024-01-30T14:28:16;16.60;;;9.40;;
19219;SDS011;9744;49.364;7.484;2024-01-30T14:30:44;23.50;;;9.70;;
19219;SDS011;9744;49.364;7.484;2024-01-30T14:33:11;17.95;;;9.25;;
19219;SDS011;9744;49.364;7.484;2024-01-30T14:39:16;17.73;;;9.65;;
19219;SDS011;9744;49.364;7.484;2024-01-30T14:41:43;17.63;;;8.90;;
19219;SDS011;9744;49.364;7.484;2024-01-30T14:44:10;18.45;;;9.40;;
19219;SDS011;9744;49.364;7.484;2024-01-30T14:46:39;19.88;;;10.30;;
19219;SDS011;9744;49.364;7.484;2024-01-30T14:49:06;16.30;;;9.95;;
19219;SDS011;9744;49.364;7.484;2024-01-30T14:51:35;17.48;;;10.07;;
19219;SDS011;9744;49.364;7.484;2024-01-30T14:54:04;18.83;;;10.68;;
19219;SDS011;9744;49.364;7.484;2024-01-30T14:56:34;20.55;;;10.52;;
19219;SDS011;9744;49.364;7.484;2024-01-30T14:59:01;22.80;;;10.35;;
19219;SDS011;9744;49.364;7.484;2024-01-30T15:01:29;22.88;;;10.30;;
19219;SDS011;9744;49.364;7.484;2024-01-30T15:03:56;23.08;;;10.25;;
19219;SDS011;9744;49.364;7.484;2024-01-30T15:06:23;20.67;;;11.02;;
19219;SDS011;9744;49.364;7.484;2024-01-30T15:08:51;22.38;;;12.55;;
19219;SDS011;9744;49.364;7.484;2024-01-30T15:11:19;22.98;;;10.65;;
19219;SDS011;9744;49.364;7.484;2024-01-30T15:13:48;21.92;;;10.50;;
19219;SDS011;9744;49.364;7.484;2024-01-30T15:16:15;16.90;;;10.10;;
19219;SDS011;9744;49.364;7.484;2024-01-30T15:18:44;19.33;;;10.57;;
19219;SDS011;9744;49.364;7.484;2024-01-30T15:21:11;16.55;;;9.93;;
19219;SDS011;9744;49.364;7.484;2024-01-30T15:23:38;21.42;;;11.38;;
19219;SDS011;9744;49.364;7.484;2024-01-30T15:26:05;20.13;;;11.27;;
19219;SDS011;9744;49.364;7.484;2024-01-30T15:31:29;16.98;;;9.90;;
19219;SDS011;9744;49.364;7.484;2024-01-30T15:33:57;20.67;;;11.32;;
19219;SDS011;9744;49.364;7.484;2024-01-30T15:36:24;20.40;;;11.35;;
19219;SDS011;9744;49.364;7.484;2024-01-30T15:38:51;23.05;;;11.35;;
19219;SDS011;9744;49.364;7.484;2024-01-30T15:41:18;22.15;;;10.60;;
19219;SDS011;9744;49.364;7.484;2024-01-30T15:43:46;21.10;;;10.45;;
19219;SDS011;9744;49.364;7.484;2024-01-30T15:46:15;23.25;;;10.95;;
19219;SDS011;9744;49.364;7.484;2024-01-30T15:48:42;23.38;;;11.82;;
19219;SDS011;9744;49.364;7.484;2024-01-30T15:51:09;24.85;;;11.82;;
19219;SDS011;9744;49.364;7.484;2024-01-30T15:53:37;17.15;;;10.32;;
19219;SDS011;9744;49.364;7.484;2024-01-30T15:56:04;20.23;;;9.52;;
19219;SDS011;9744;49.364;7.484;2024-01-30T15:58:35;17.83;;;9.68;;
19219;SDS011;9744;49.364;7.484;2024-01-30T16:01:02;27.63;;;11.25;;
19219;SDS011;9744;49.364;7.484;2024-01-30T16:03:31;19.50;;;10.45;;
19219;SDS011;9744;49.364;7.484;2024-01-30T16:06:01;19.67;;;10.05;;
19219;SDS011;9744;49.364;7.484;2024-01-30T16:08:28;16.85;;;10.32;;
19219;SDS011;9744;49.364;7.484;2024-01-30T16:10:55;20.30;;;10.70;;
19219;SDS011;9744;49.364;7.484;2024-01-30T16:13:24;19.55;;;11.07;;
19219;SDS011;9744;49.364;7.484;2024-01-30T16:15:52;18.55;;;10.93;;
19219;SDS011;9744;49.364;7.484;2024-01-30T16:18:19;16.67;;;10.38;;
19219;SDS011;9744;49.364;7.484;2024-01-30T16:20:48;21.00;;;11.20;;
19219;SDS011;9744;49.364;7.484;2024-01-30T16:23:16;18.17;;;10.50;;
19219;SDS011;9744;49.364;7.484;2024-01-30T16:25:43;22.17;;;11.23;;
19219;SDS011;9744;49.364;7.484;2024-01-30T16:28:10;19.35;;;11.55;;
19219;SDS011;9744;49.364;7.484;2024-01-30T16:30:37;19.30;;;10.80;;
19219;SDS011;9744;49.364;7.484;2024-01-30T16:33:05;23.05;;;11.88;;
19219;SDS011;9744;49.364;7.484;2024-01-30T16:35:32;19.17;;;10.75;;
19219;SDS011;9744;49.364;7.484;2024-01-30T16:38:01;17.70;;;10.23;;
19219;SDS011;9744;49.364;7.484;2024-01-30T16:40:28;21.80;;;11.95;;
19219;SDS011;9744;49.364;7.484;2024-01-30T16:42:55;23.73;;;11.85;;
19219;SDS011;9744;49.364;7.484;2024-01-30T16:45:23;17.40;;;10.60;;
19219;SDS011;9744;49.364;7.484;2024-01-30T16:47:50;18.73;;;10.63;;
19219;SDS011;9744;49.364;7.484;2024-01-30T16:50:17;23.83;;;11.95;;
19219;SDS011;9744;49.364;7.484;2024-01-30T16:52:44;19.63;;;10.88;;
19219;SDS011;9744;49.364;7.484;2024-01-30T16:55:13;23.08;;;11.57;;
19219;SDS011;9744;49.364;7.484;2024-01-30T16:57:41;22.67;;;11.63;;
19219;SDS011;9744;49.364;7.484;2024-01-30T17:00:09;24.75;;;11.98;;